WC StCyr

Date de la prise de vue : 30/09/2022 14:02:23
Et voilĂ  le METAR et le TAF :
2022/09/30 12:00 LFPN 301200Z AUTO 22008KT 200V280 9999 SCT043 18/07 Q1012 NOSIG
2022/09/30 12:21 TAF TAF LFPN 301100Z 3012/3021 23008KT CAVOK